createdAt,value
2022-08-07T00:00:28.737Z,0.00
2022-08-07T00:01:44.206Z,0.00
2022-08-07T00:02:40.681Z,0.00
2022-08-07T00:03:28.726Z,0.00
2022-08-07T00:04:28.735Z,0.00
2022-08-07T00:05:28.797Z,0.00
2022-08-07T00:06:29.468Z,0.00
2022-08-07T00:07:28.862Z,0.00
2022-08-07T00:08:28.959Z,0.00
2022-08-07T00:09:35.557Z,0.00
2022-08-07T00:10:30.051Z,0.00
2022-08-07T00:11:30.100Z,0.00
2022-08-07T00:12:28.704Z,0.00
2022-08-07T00:13:28.654Z,0.00
2022-08-07T00:14:30.241Z,0.00
2022-08-07T00:15:36.169Z,0.00
2022-08-07T00:16:28.684Z,0.00
2022-08-07T00:17:29.004Z,0.00
2022-08-07T00:18:28.643Z,0.00
2022-08-07T00:19:59.860Z,0.00
2022-08-07T00:20:29.547Z,0.00
2022-08-07T00:21:55.447Z,0.00
2022-08-07T00:22:35.212Z,0.00
2022-08-07T00:23:30.228Z,0.00
2022-08-07T00:24:31.705Z,0.00
2022-08-07T00:25:28.571Z,0.00
2022-08-07T00:26:48.778Z,0.00
2022-08-07T00:27:28.789Z,0.00
2022-08-07T00:28:33.416Z,0.00
2022-08-07T00:29:31.437Z,0.00
2022-08-07T00:30:28.698Z,0.00
2022-08-07T00:31:37.567Z,0.00
2022-08-07T00:32:28.686Z,0.00
2022-08-07T00:33:28.721Z,0.00
2022-08-07T00:34:28.969Z,0.00
2022-08-07T00:35:29.744Z,0.00
2022-08-07T00:36:28.531Z,0.00
2022-08-07T00:37:29.308Z,0.00
2022-08-07T00:38:31.737Z,0.00
2022-08-07T00:39:28.564Z,0.00
2022-08-07T00:40:40.110Z,0.00
2022-08-07T00:41:28.527Z,0.00
2022-08-07T00:42:29.253Z,0.00
2022-08-07T00:44:00.978Z,0.00
2022-08-07T00:44:29.448Z,0.00
2022-08-07T00:45:28.436Z,0.00
2022-08-07T00:46:28.423Z,0.00
2022-08-07T00:48:09.436Z,0.00
2022-08-07T00:48:31.734Z,0.00
2022-08-07T00:50:19.476Z,0.00
2022-08-07T00:50:50.929Z,0.00
2022-08-07T00:51:57.071Z,0.00
2022-08-07T00:52:28.418Z,0.00
2022-08-07T00:53:38.623Z,0.00
2022-08-07T00:54:28.368Z,0.00
2022-08-07T00:56:00.584Z,0.00
2022-08-07T00:56:29.969Z,0.00
2022-08-07T00:57:28.634Z,0.00
2022-08-07T00:58:28.798Z,0.00
2022-08-07T00:59:35.325Z,0.00
2022-08-07T01:00:28.636Z,0.00
2022-08-07T01:01:28.421Z,0.00
2022-08-07T01:02:29.593Z,0.00
2022-08-07T01:03:55.955Z,0.00
2022-08-07T01:04:30.321Z,0.00
2022-08-07T01:05:28.294Z,0.00
2022-08-07T01:06:28.396Z,0.00
2022-08-07T01:07:29.611Z,0.00
2022-08-07T01:08:28.306Z,0.00
2022-08-07T01:10:04.755Z,0.00
2022-08-07T01:10:28.266Z,0.00
2022-08-07T01:12:10.025Z,0.00
2022-08-07T01:12:30.730Z,0.00
2022-08-07T01:13:28.243Z,0.00
2022-08-07T01:14:29.010Z,0.00
2022-08-07T01:16:00.484Z,0.00
2022-08-07T01:16:30.438Z,0.00
2022-08-07T01:17:28.349Z,0.00
2022-08-07T01:18:28.212Z,0.00
2022-08-07T01:19:32.646Z,0.00
2022-08-07T01:20:30.877Z,0.00
2022-08-07T01:21:28.522Z,0.00
2022-08-07T01:22:29.377Z,0.00
2022-08-07T01:23:36.784Z,0.00
2022-08-07T01:24:28.181Z,0.00
2022-08-07T01:25:53.645Z,0.00
2022-08-07T01:26:28.160Z,0.00
2022-08-07T01:27:32.315Z,0.00
2022-08-07T01:28:28.501Z,0.00
2022-08-07T01:29:33.720Z,0.00
2022-08-07T01:30:28.132Z,0.00
2022-08-07T01:31:41.742Z,0.00
2022-08-07T01:32:28.119Z,0.00
2022-08-07T01:33:47.662Z,0.00
2022-08-07T01:34:30.793Z,0.00
2022-08-07T01:35:52.883Z,0.00
2022-08-07T01:36:33.354Z,0.00
2022-08-07T01:37:28.389Z,0.00
2022-08-07T01:38:29.153Z,0.00
2022-08-07T01:39:40.969Z,0.00
2022-08-07T01:40:28.079Z,0.00
2022-08-07T01:41:28.151Z,0.00
2022-08-07T01:42:39.718Z,0.00
2022-08-07T01:43:38.100Z,0.00
2022-08-07T01:44:28.049Z,0.00
2022-08-07T01:45:37.260Z,0.00
2022-08-07T01:46:28.018Z,0.00
2022-08-07T01:48:18.048Z,0.00
2022-08-07T01:48:30.083Z,0.00
2022-08-07T01:49:28.058Z,0.00
2022-08-07T01:50:28.973Z,0.00
2022-08-07T01:52:03.970Z,0.00
2022-08-07T01:52:27.987Z,0.00
2022-08-07T01:54:09.555Z,0.00
2022-08-07T01:54:36.504Z,0.00
2022-08-07T01:55:27.958Z,0.00
2022-08-07T01:56:29.085Z,0.00
2022-08-07T01:57:27.937Z,0.00
2022-08-07T01:58:29.436Z,0.00
2022-08-07T01:59:31.178Z,0.00
2022-08-07T02:00:28.849Z,0.00
2022-08-07T02:02:00.150Z,0.00
2022-08-07T02:03:12.565Z,0.00
2022-08-07T02:03:42.923Z,0.00
2022-08-07T02:04:28.129Z,0.00
2022-08-07T02:05:47.725Z,0.00
2022-08-07T02:06:31.950Z,0.00
2022-08-07T02:07:44.871Z,0.00
2022-08-07T02:08:27.894Z,0.00
2022-08-07T02:09:52.023Z,0.00
2022-08-07T02:10:27.950Z,0.00
2022-08-07T02:11:30.982Z,0.00
2022-08-07T02:12:29.357Z,0.00
2022-08-07T02:13:57.143Z,0.00
2022-08-07T02:14:36.391Z,0.00
2022-08-07T02:15:28.260Z,0.00
2022-08-07T02:16:28.799Z,0.00
2022-08-07T02:17:34.067Z,0.00
2022-08-07T02:18:27.873Z,0.00
2022-08-07T02:20:06.993Z,0.00
2022-08-07T02:20:27.816Z,0.00
2022-08-07T02:21:27.955Z,0.00
2022-08-07T02:22:27.923Z,0.00
2022-08-07T02:23:28.058Z,0.00
2022-08-07T02:24:29.476Z,0.00
2022-08-07T02:26:11.438Z,0.00
2022-08-07T02:26:34.023Z,0.00
2022-08-07T02:27:34.104Z,0.00
2022-08-07T02:28:27.741Z,0.00
2022-08-07T02:29:27.730Z,0.00
2022-08-07T02:30:27.742Z,0.00
2022-08-07T02:31:28.418Z,0.00
2022-08-07T02:32:30.199Z,0.00
2022-08-07T02:33:32.823Z,0.00
2022-08-07T02:34:27.700Z,0.00
2022-08-07T02:36:28.943Z,0.00
2022-08-07T02:36:32.623Z,0.00
2022-08-07T02:37:27.929Z,0.00
2022-08-07T02:38:28.101Z,0.00
2022-08-07T02:39:43.418Z,0.00
2022-08-07T02:40:31.115Z,0.00
2022-08-07T02:41:33.467Z,0.00
2022-08-07T02:42:28.369Z,0.00
2022-08-07T02:43:27.649Z,0.00
2022-08-07T02:44:34.879Z,0.00
2022-08-07T02:45:58.461Z,0.00
2022-08-07T02:46:27.619Z,0.00
2022-08-07T02:47:27.609Z,0.00
2022-08-07T02:48:28.095Z,0.00
2022-08-07T02:49:28.773Z,0.00
2022-08-07T02:50:30.727Z,0.00
2022-08-07T02:51:41.776Z,0.00
2022-08-07T02:52:31.179Z,0.00
2022-08-07T02:53:27.787Z,0.00
2022-08-07T02:54:27.608Z,0.00
2022-08-07T02:56:02.013Z,0.00
2022-08-07T02:56:27.962Z,0.00
2022-08-07T02:57:28.581Z,0.00
2022-08-07T02:58:27.546Z,0.00
2022-08-07T02:59:27.863Z,0.00
2022-08-07T03:00:27.690Z,0.00
2022-08-07T03:01:35.552Z,0.00
2022-08-07T03:02:27.964Z,0.00
2022-08-07T03:03:29.447Z,0.00
2022-08-07T03:04:28.056Z,0.00
2022-08-07T03:05:35.648Z,0.00
2022-08-07T03:06:33.082Z,0.00
2022-08-07T03:08:05.122Z,0.00
2022-08-07T03:08:29.550Z,0.00
2022-08-07T03:09:43.850Z,0.00
2022-08-07T03:10:27.632Z,0.00
2022-08-07T03:11:28.247Z,0.00
2022-08-07T03:12:31.132Z,0.00
2022-08-07T03:13:27.447Z,0.00
2022-08-07T03:14:28.075Z,0.00
2022-08-07T03:15:47.433Z,0.00
2022-08-07T03:16:27.847Z,0.00
2022-08-07T03:17:27.712Z,0.00
2022-08-07T03:18:35.036Z,0.00
2022-08-07T03:19:28.896Z,0.00
2022-08-07T03:20:28.291Z,0.00
2022-08-07T03:21:27.453Z,0.00
2022-08-07T03:22:30.327Z,0.00
2022-08-07T03:23:33.884Z,0.00
2022-08-07T03:24:28.111Z,4.00
2022-08-07T03:25:27.363Z,4.00
2022-08-07T03:26:27.372Z,1.00
2022-08-07T03:27:30.259Z,0.00
2022-08-07T03:28:38.162Z,1.00
2022-08-07T03:29:28.203Z,1.00
2022-08-07T03:30:27.332Z,1.00
2022-08-07T03:31:42.508Z,1.00
2022-08-07T03:32:28.346Z,1.00
2022-08-07T03:33:32.318Z,3.00
2022-08-07T03:34:27.610Z,3.00
2022-08-07T03:35:27.532Z,6.00
2022-08-07T03:36:27.567Z,4.00
2022-08-07T03:37:27.669Z,6.00
2022-08-07T03:38:29.707Z,27.00
2022-08-07T03:39:56.594Z,15.00
2022-08-07T03:40:27.436Z,20.00
2022-08-07T03:41:42.359Z,20.00
2022-08-07T03:42:27.267Z,16.00
2022-08-07T03:43:32.296Z,26.00
2022-08-07T03:44:34.183Z,22.00
2022-08-07T03:45:30.637Z,31.00
2022-08-07T03:46:27.235Z,32.00
2022-08-07T03:47:28.010Z,41.00
2022-08-07T03:48:27.207Z,54.00
2022-08-07T03:49:27.207Z,64.00
2022-08-07T03:50:28.726Z,69.00
2022-08-07T03:51:31.048Z,70.00
2022-08-07T03:52:27.431Z,84.00
2022-08-07T03:54:00.636Z,98.00
2022-08-07T03:54:35.840Z,115.00
2022-08-07T03:55:42.795Z,138.00
2022-08-07T03:56:33.525Z,152.00
2022-08-07T03:58:33.843Z,162.00
2022-08-07T03:59:04.786Z,176.00
2022-08-07T03:59:27.607Z,211.00
2022-08-07T04:00:33.702Z,220.00
2022-08-07T04:01:27.227Z,247.00
2022-08-07T04:02:27.474Z,261.00
2022-08-07T04:03:27.787Z,288.00
2022-08-07T04:04:27.104Z,312.00
2022-08-07T04:05:39.528Z,335.00
2022-08-07T04:06:37.209Z,362.00
2022-08-07T04:07:35.932Z,394.00
2022-08-07T04:08:27.123Z,426.00
2022-08-07T04:09:38.061Z,449.00
2022-08-07T04:10:27.070Z,481.00
2022-08-07T04:12:27.824Z,512.00
2022-08-07T04:12:29.029Z,568.00
2022-08-07T04:13:27.603Z,621.00
2022-08-07T04:14:37.631Z,627.00
2022-08-07T04:15:27.132Z,663.00
2022-08-07T04:16:31.422Z,707.00
2022-08-07T04:18:04.586Z,744.00
2022-08-07T04:18:58.618Z,771.00
2022-08-07T04:19:50.921Z,828.00
2022-08-07T04:20:27.013Z,864.00
2022-08-07T04:21:27.002Z,892.00
2022-08-07T04:22:29.091Z,923.00
2022-08-07T04:23:43.706Z,968.00
2022-08-07T04:24:30.776Z,1008.00
2022-08-07T04:25:29.266Z,1053.00
2022-08-07T04:26:28.654Z,1077.00
2022-08-07T04:27:27.219Z,1109.00
2022-08-07T04:28:26.960Z,1150.00
2022-08-07T04:29:26.959Z,1188.00
2022-08-07T04:30:39.540Z,1200.00
2022-08-07T04:31:39.225Z,1230.00
2022-08-07T04:32:34.098Z,1277.00
2022-08-07T04:33:27.003Z,1307.00
2022-08-07T04:34:33.035Z,1307.00
2022-08-07T04:35:34.997Z,1345.00
2022-08-07T04:36:26.912Z,1370.00
2022-08-07T04:37:26.920Z,1407.00
2022-08-07T04:38:26.897Z,1448.00
2022-08-07T04:39:26.948Z,1462.00
2022-08-07T04:40:30.071Z,1504.00
2022-08-07T04:41:26.877Z,1516.00
2022-08-07T04:42:28.756Z,1526.00
2022-08-07T04:44:09.632Z,1541.00
2022-08-07T04:44:26.836Z,1555.00
2022-08-07T04:45:57.397Z,1596.00
2022-08-07T04:46:34.255Z,1641.00
2022-08-07T04:47:58.748Z,1708.00
2022-08-07T04:48:27.038Z,1719.00
2022-08-07T04:49:27.086Z,1704.00
2022-08-07T04:50:26.806Z,1703.00
2022-08-07T04:51:27.248Z,1734.00
2022-08-07T04:52:27.594Z,1748.00
2022-08-07T04:53:40.150Z,1750.00
2022-08-07T04:54:29.950Z,1777.00
2022-08-07T04:58:07.320Z,1808.00
2022-08-07T04:58:09.386Z,1833.00
2022-08-07T04:58:12.971Z,1781.00
2022-08-07T04:58:48.812Z,1842.00
2022-08-07T05:00:09.949Z,1851.00
2022-08-07T05:00:30.595Z,1864.00
2022-08-07T05:01:29.922Z,1873.00
2022-08-07T05:02:26.724Z,1902.00
2022-08-07T05:03:38.777Z,1953.00
2022-08-07T05:04:26.733Z,2022.00
2022-08-07T05:05:52.791Z,2013.00
2022-08-07T05:06:28.135Z,1958.00
2022-08-07T05:07:30.699Z,1941.00
2022-08-07T05:08:58.965Z,1973.00
2022-08-07T05:09:27.957Z,1959.00
2022-08-07T05:10:27.082Z,1985.00
2022-08-07T05:11:26.692Z,2000.00
2022-08-07T05:12:30.532Z,2014.00
2022-08-07T05:14:52.168Z,2010.00
2022-08-07T05:14:54.050Z,2011.00
2022-08-07T05:15:26.647Z,2044.00
2022-08-07T05:16:26.640Z,2040.00
2022-08-07T05:17:50.380Z,2035.00
2022-08-07T05:18:26.890Z,2051.00
2022-08-07T05:19:32.847Z,2109.00
2022-08-07T05:20:26.611Z,2166.00
2022-08-07T05:21:59.356Z,2139.00
2022-08-07T05:22:27.861Z,2112.00
2022-08-07T05:23:30.921Z,2186.00
2022-08-07T05:24:30.508Z,2242.00
2022-08-07T05:25:54.523Z,2290.00
2022-08-07T05:26:26.581Z,2315.00
2022-08-07T05:28:16.751Z,2405.00
2022-08-07T05:28:27.606Z,2411.00
2022-08-07T05:29:26.579Z,2361.00
2022-08-07T05:30:32.852Z,2294.00
2022-08-07T05:31:35.019Z,2247.00
2022-08-07T05:32:26.797Z,2288.00
2022-08-07T05:33:26.919Z,2403.00
2022-08-07T05:34:27.737Z,2408.00
2022-08-07T05:35:33.622Z,2432.00
2022-08-07T05:36:32.183Z,2406.00
2022-08-07T05:37:26.962Z,2404.00
2022-08-07T05:38:59.437Z,2449.00
2022-08-07T05:40:16.783Z,2445.00
2022-08-07T05:40:26.659Z,2457.00
2022-08-07T05:41:26.509Z,2504.00
2022-08-07T05:42:34.303Z,2538.00
2022-08-07T05:43:49.668Z,2518.00
2022-08-07T05:44:29.600Z,2502.00
2022-08-07T05:45:47.739Z,2467.00
2022-08-07T05:46:26.556Z,2518.00
2022-08-07T05:47:38.328Z,2603.00
2022-08-07T05:48:26.873Z,2577.00
2022-08-07T05:49:26.535Z,2549.00
2022-08-07T05:50:27.455Z,2725.00
2022-08-07T05:51:26.415Z,3271.00
2022-08-07T05:52:32.267Z,3048.00
2022-08-07T05:54:14.105Z,2728.00
2022-08-07T05:54:44.113Z,2478.00
2022-08-07T05:56:02.781Z,2430.00
2022-08-07T05:56:30.084Z,2423.00
2022-08-07T05:57:30.476Z,2804.00
2022-08-07T05:58:36.435Z,2981.00
2022-08-07T05:59:27.435Z,3009.00
2022-08-07T06:00:26.483Z,2945.00
2022-08-07T06:01:26.352Z,2883.00
2022-08-07T06:02:28.784Z,2821.00
2022-08-07T06:03:26.630Z,2823.00
2022-08-07T06:04:30.207Z,2859.00
2022-08-07T06:05:28.398Z,2760.00
2022-08-07T06:06:29.909Z,2774.00
2022-08-07T06:08:14.504Z,2786.00
2022-08-07T06:08:30.786Z,2915.00
2022-08-07T06:10:04.118Z,2996.00
2022-08-07T06:10:26.271Z,2954.00
2022-08-07T06:11:26.312Z,2858.00
2022-08-07T06:12:31.612Z,2941.00
2022-08-07T06:14:10.595Z,3032.00
2022-08-07T06:14:28.674Z,3107.00
2022-08-07T06:15:39.380Z,3004.00
2022-08-07T06:16:29.140Z,2903.00
2022-08-07T06:17:30.578Z,3110.00
2022-08-07T06:18:27.985Z,3144.00
2022-08-07T06:19:57.815Z,3054.00
2022-08-07T06:20:38.142Z,3235.00
2022-08-07T06:22:14.585Z,3118.00
2022-08-07T06:22:27.108Z,3172.00
2022-08-07T06:24:38.365Z,3161.00
2022-08-07T06:24:38.695Z,3128.00
2022-08-07T06:25:26.169Z,3195.00
2022-08-07T06:26:27.518Z,3208.00
2022-08-07T06:27:59.734Z,3103.00
2022-08-07T06:28:27.728Z,3390.00
2022-08-07T06:29:26.189Z,3070.00
2022-08-07T06:30:35.530Z,3083.00
2022-08-07T06:31:46.774Z,3141.00
2022-08-07T06:32:29.269Z,3182.00
2022-08-07T06:33:26.128Z,3239.00
2022-08-07T06:34:29.753Z,3274.00
2022-08-07T06:35:39.048Z,3224.00
2022-08-07T06:36:35.174Z,3237.00
2022-08-07T06:37:26.326Z,3267.00
2022-08-07T06:38:26.078Z,3258.00
2022-08-07T06:40:17.562Z,3259.00
2022-08-07T06:40:29.826Z,3224.00
2022-08-07T06:41:59.141Z,3304.00
2022-08-07T06:42:34.923Z,3304.00
2022-08-07T06:43:26.743Z,3269.00
2022-08-07T06:44:26.038Z,3270.00
2022-08-07T06:45:26.299Z,3372.00
2022-08-07T06:46:31.584Z,3298.00
2022-08-07T06:47:27.051Z,3236.00
2022-08-07T06:48:26.019Z,3328.00
2022-08-07T06:49:26.025Z,3353.00
2022-08-07T06:50:26.027Z,3327.00
2022-08-07T06:51:33.571Z,3344.00
2022-08-07T06:52:31.393Z,3336.00
2022-08-07T06:55:29.492Z,3377.00
2022-08-07T06:55:33.325Z,3362.00
2022-08-07T06:55:34.451Z,3370.00
2022-08-07T06:56:25.965Z,3388.00
2022-08-07T06:57:39.418Z,3389.00
2022-08-07T06:58:28.743Z,3413.00
2022-08-07T07:00:12.996Z,3378.00
2022-08-07T07:00:26.015Z,3392.00
2022-08-07T07:01:25.978Z,3414.00
2022-08-07T07:02:53.336Z,3403.00
2022-08-07T07:03:39.519Z,3400.00
2022-08-07T07:04:32.271Z,3393.00
2022-08-07T07:06:03.104Z,3489.00
2022-08-07T07:06:26.232Z,3489.00
2022-08-07T07:07:59.271Z,3476.00
2022-08-07T07:08:26.657Z,3493.00
2022-08-07T07:09:25.873Z,3478.00
2022-08-07T07:10:26.613Z,3482.00
2022-08-07T07:12:08.552Z,3497.00
2022-08-07T07:12:31.188Z,3462.00
2022-08-07T07:13:55.690Z,3455.00
2022-08-07T07:14:25.843Z,3724.00
2022-08-07T07:15:26.354Z,3598.00
2022-08-07T07:16:27.341Z,3440.00
2022-08-07T07:17:28.793Z,3545.00
2022-08-07T07:18:47.538Z,3517.00
2022-08-07T07:19:57.156Z,3558.00
2022-08-07T07:20:25.820Z,3560.00
2022-08-07T07:21:27.358Z,3611.00
2022-08-07T07:22:36.380Z,3608.00
2022-08-07T07:24:10.800Z,3640.00
2022-08-07T07:24:25.793Z,3541.00
2022-08-07T07:26:32.658Z,3616.00
2022-08-07T07:26:33.380Z,3650.00
2022-08-07T07:27:25.754Z,3744.00
2022-08-07T07:28:42.484Z,3564.00
2022-08-07T07:29:55.964Z,3649.00
2022-08-07T07:30:32.517Z,3688.00
2022-08-07T07:31:25.753Z,3702.00
2022-08-07T07:32:25.721Z,3680.00
2022-08-07T07:33:25.722Z,3752.00
2022-08-07T07:34:30.822Z,3746.00
2022-08-07T07:35:25.701Z,3729.00
2022-08-07T07:36:32.719Z,3756.00
2022-08-07T07:37:49.749Z,3774.00
2022-08-07T07:38:25.681Z,3771.00
2022-08-07T07:39:25.836Z,3797.00
2022-08-07T07:40:26.313Z,3795.00
2022-08-07T07:41:50.460Z,3813.00
2022-08-07T07:42:25.925Z,3840.00
2022-08-07T07:43:27.678Z,3825.00
2022-08-07T07:44:26.646Z,3839.00
2022-08-07T07:46:36.788Z,3876.00
2022-08-07T07:46:40.494Z,3861.00
2022-08-07T07:47:25.757Z,3885.00
2022-08-07T07:48:35.756Z,3880.00
2022-08-07T07:50:34.517Z,3912.00
2022-08-07T07:50:36.178Z,3897.00
2022-08-07T07:51:25.639Z,3922.00
2022-08-07T07:52:25.598Z,3952.00
2022-08-07T07:53:25.906Z,3955.00
2022-08-07T07:54:25.569Z,3969.00
2022-08-07T07:55:25.604Z,3977.00
2022-08-07T07:56:30.005Z,4001.00
2022-08-07T07:57:43.900Z,4015.00
2022-08-07T07:58:25.579Z,4041.00
2022-08-07T07:59:52.266Z,4069.00
2022-08-07T08:00:29.369Z,3974.00
2022-08-07T08:02:03.023Z,4056.00
2022-08-07T08:02:35.381Z,4089.00
2022-08-07T08:04:06.107Z,4036.00
2022-08-07T08:04:27.391Z,4063.00
2022-08-07T08:05:27.810Z,4111.00
2022-08-07T08:06:26.064Z,4121.00
2022-08-07T08:07:35.991Z,4130.00
2022-08-07T08:08:36.209Z,4141.00
2022-08-07T08:09:29.409Z,4162.00
2022-08-07T08:10:37.622Z,4151.00
2022-08-07T08:11:59.987Z,4142.00
2022-08-07T08:12:52.696Z,4152.00
2022-08-07T08:13:25.437Z,4166.00
2022-08-07T08:14:26.546Z,4197.00
2022-08-07T08:15:25.429Z,4164.00
2022-08-07T08:16:25.468Z,4216.00
2022-08-07T08:17:57.573Z,4263.00
2022-08-07T08:18:25.417Z,4243.00
2022-08-07T08:20:19.531Z,4240.00
2022-08-07T08:20:31.880Z,4226.00
2022-08-07T08:21:25.409Z,4256.00
2022-08-07T08:22:28.395Z,4278.00
2022-08-07T08:23:25.385Z,4288.00
2022-08-07T08:24:36.626Z,4395.00
2022-08-07T08:25:42.473Z,4213.00
2022-08-07T08:26:25.566Z,4305.00
2022-08-07T08:27:25.354Z,4364.00
2022-08-07T08:28:37.670Z,4334.00
2022-08-07T08:29:25.337Z,4799.00
2022-08-07T08:30:25.336Z,3862.00
2022-08-07T08:31:30.252Z,4384.00
2022-08-07T08:32:25.623Z,4381.00
2022-08-07T08:33:25.306Z,4382.00
2022-08-07T08:34:27.126Z,4413.00
2022-08-07T08:35:25.296Z,4410.00
2022-08-07T08:36:25.553Z,4454.00
2022-08-07T08:38:01.095Z,4538.00
2022-08-07T08:38:25.775Z,4469.00
2022-08-07T08:39:25.337Z,4470.00
2022-08-07T08:40:28.625Z,4513.00
2022-08-07T08:41:25.286Z,4521.00
2022-08-07T08:42:25.770Z,4513.00
2022-08-07T08:43:41.730Z,4520.00
2022-08-07T08:44:29.340Z,4520.00
2022-08-07T08:45:26.694Z,4534.00
2022-08-07T08:46:25.392Z,4551.00
2022-08-07T08:47:25.411Z,4556.00
2022-08-07T08:48:28.406Z,4544.00
2022-08-07T08:49:33.642Z,4557.00
2022-08-07T08:50:35.378Z,4577.00
2022-08-07T08:51:29.651Z,4604.00
2022-08-07T08:52:25.195Z,4559.00
2022-08-07T08:53:25.184Z,4607.00
2022-08-07T08:54:25.333Z,4622.00
2022-08-07T08:55:53.289Z,4533.00
2022-08-07T08:56:25.185Z,4562.00
2022-08-07T08:57:25.147Z,4592.00
2022-08-07T08:58:28.765Z,4609.00
2022-08-07T08:59:25.243Z,4627.00
2022-08-07T09:00:25.134Z,4654.00
2022-08-07T09:01:29.933Z,4726.00
2022-08-07T09:02:34.622Z,4714.00
2022-08-07T09:03:48.051Z,4694.00
2022-08-07T09:04:26.025Z,4713.00
2022-08-07T09:05:32.345Z,4730.00
2022-08-07T09:06:25.095Z,4769.00
2022-08-07T09:07:25.220Z,4757.00
2022-08-07T09:08:28.535Z,4733.00
2022-08-07T09:09:30.247Z,4793.00
2022-08-07T09:10:25.077Z,4840.00
2022-08-07T09:11:50.849Z,4818.00
2022-08-07T09:12:31.109Z,4815.00
2022-08-07T09:13:37.613Z,4829.00
2022-08-07T09:14:29.546Z,4843.00
2022-08-07T09:16:24.458Z,4865.00
2022-08-07T09:16:29.899Z,4895.00
2022-08-07T09:17:25.035Z,4879.00
2022-08-07T09:18:25.125Z,4889.00
2022-08-07T09:19:51.504Z,4966.00
2022-08-07T09:20:35.341Z,4894.00
2022-08-07T09:21:34.107Z,4907.00
2022-08-07T09:24:28.490Z,5428.00
2022-08-07T09:24:29.266Z,4449.00
2022-08-07T09:24:33.364Z,5397.00
2022-08-07T09:25:24.962Z,4518.00
2022-08-07T09:26:24.954Z,4994.00
2022-08-07T09:27:24.965Z,5083.00
2022-08-07T09:30:05.649Z,5096.00
2022-08-07T09:30:06.615Z,5098.00
2022-08-07T09:30:28.058Z,5100.00
2022-08-07T09:31:25.962Z,5157.00
2022-08-07T09:32:26.509Z,5226.00
2022-08-07T09:33:52.961Z,5264.00
2022-08-07T09:34:26.299Z,5083.00
2022-08-07T09:36:04.306Z,5356.00
2022-08-07T09:36:26.990Z,5283.00
2022-08-07T09:37:47.771Z,5358.00
2022-08-07T09:38:24.905Z,5371.00
2022-08-07T09:39:52.715Z,5389.00
2022-08-07T09:40:24.901Z,5454.00
2022-08-07T09:41:24.853Z,5301.00
2022-08-07T09:42:25.146Z,5521.00
2022-08-07T09:44:03.211Z,5467.00
2022-08-07T09:44:32.684Z,5876.00
2022-08-07T09:47:25.583Z,7447.00
2022-08-07T09:47:51.545Z,3003.00
2022-08-07T09:47:59.481Z,7966.00
2022-08-07T09:48:29.785Z,5201.00
2022-08-07T09:50:01.119Z,4995.00
2022-08-07T09:50:26.573Z,5885.00
2022-08-07T09:52:09.251Z,5809.00
2022-08-07T09:52:34.624Z,6181.00
2022-08-07T09:53:24.838Z,6608.00
2022-08-07T09:54:28.243Z,6206.00
2022-08-07T09:55:29.601Z,5911.00
2022-08-07T09:56:33.819Z,5820.00
2022-08-07T09:57:24.744Z,5777.00
2022-08-07T09:58:32.004Z,5768.00
2022-08-07T09:59:29.410Z,5782.00
2022-08-07T10:00:29.918Z,6001.00
2022-08-07T10:01:51.546Z,5640.00
2022-08-07T10:02:24.716Z,5773.00
2022-08-07T10:04:07.118Z,5797.00
2022-08-07T10:04:24.708Z,5815.00
2022-08-07T10:05:29.731Z,5866.00
2022-08-07T10:06:24.793Z,5884.00
2022-08-07T10:07:26.106Z,5908.00
2022-08-07T10:08:24.694Z,5950.00
2022-08-07T10:09:42.826Z,6077.00
2022-08-07T10:10:24.662Z,6150.00
2022-08-07T10:12:02.721Z,6009.00
2022-08-07T10:12:26.154Z,6006.00
2022-08-07T10:13:55.219Z,5968.00
2022-08-07T10:14:30.385Z,5999.00
2022-08-07T10:15:24.635Z,6053.00
2022-08-07T10:16:24.633Z,6035.00
2022-08-07T10:17:24.686Z,6147.00
2022-08-07T10:18:26.567Z,6067.00
2022-08-07T10:19:24.624Z,6104.00
2022-08-07T10:20:30.390Z,6221.00
2022-08-07T10:22:15.036Z,6301.00
2022-08-07T10:22:24.977Z,6355.00
2022-08-07T10:24:04.720Z,6423.00
2022-08-07T10:24:24.571Z,6298.00
2022-08-07T10:25:24.553Z,6599.00
2022-08-07T10:26:24.991Z,6794.00
2022-08-07T10:27:24.544Z,6915.00
2022-08-07T10:28:24.557Z,6668.00
2022-08-07T10:29:24.532Z,6464.00
2022-08-07T10:30:24.945Z,6394.00
2022-08-07T10:31:24.513Z,6362.00
2022-08-07T10:32:51.193Z,6379.00
2022-08-07T10:34:05.784Z,6360.00
2022-08-07T10:34:27.251Z,6457.00
2022-08-07T10:35:25.740Z,6446.00
2022-08-07T10:36:29.941Z,6510.00
2022-08-07T10:37:26.497Z,6552.00
2022-08-07T10:38:48.010Z,6508.00
2022-08-07T10:39:25.714Z,6533.00
2022-08-07T10:40:24.513Z,6455.00
2022-08-07T10:41:46.527Z,6693.00
2022-08-07T10:42:31.252Z,6625.00
2022-08-07T10:43:34.377Z,6695.00
2022-08-07T10:44:37.971Z,6815.00
2022-08-07T10:45:45.453Z,6922.00
2022-08-07T10:46:24.422Z,6691.00
2022-08-07T10:47:27.214Z,6750.00
2022-08-07T10:48:24.433Z,6897.00
2022-08-07T10:49:45.168Z,6870.00
2022-08-07T10:50:25.855Z,6735.00
2022-08-07T10:51:57.651Z,6615.00
2022-08-07T10:52:31.801Z,6864.00
2022-08-07T10:53:24.384Z,7293.00
2022-08-07T10:54:24.371Z,7804.00
2022-08-07T10:55:37.678Z,8714.00
2022-08-07T10:56:30.973Z,9546.00
2022-08-07T10:57:34.080Z,9802.00
2022-08-07T10:58:31.841Z,10139.00
2022-08-07T10:59:24.333Z,4596.00
2022-08-07T11:00:39.523Z,8857.00
2022-08-07T11:01:24.366Z,168134.00
2022-08-07T11:02:32.832Z,161287.00
2022-08-07T11:03:24.331Z,158900.00
2022-08-07T11:04:32.055Z,157746.00
2022-08-07T11:05:24.337Z,156063.00
2022-08-07T11:06:26.956Z,154423.00
2022-08-07T11:07:56.564Z,162703.00
2022-08-07T11:08:30.166Z,162906.00
2022-08-07T11:10:09.470Z,164266.00
2022-08-07T11:10:24.319Z,158102.00
2022-08-07T11:11:24.252Z,156417.00
2022-08-07T11:12:31.510Z,160511.00
2022-08-07T11:14:43.772Z,158141.00
2022-08-07T11:14:45.764Z,155239.00
2022-08-07T11:15:31.435Z,155006.00
2022-08-07T11:16:29.815Z,150534.00
2022-08-07T11:17:43.387Z,152492.00
2022-08-07T11:18:24.518Z,161941.00
2022-08-07T11:19:27.462Z,163128.00
2022-08-07T11:20:24.912Z,154412.00
2022-08-07T11:21:24.543Z,153372.00
2022-08-07T11:22:32.344Z,156241.00
2022-08-07T11:23:26.344Z,159072.00
2022-08-07T11:24:24.255Z,163366.00
2022-08-07T11:25:24.173Z,160259.00
2022-08-07T11:26:24.173Z,155613.00
2022-08-07T11:28:01.011Z,156081.00
2022-08-07T11:28:24.808Z,154845.00
2022-08-07T11:29:40.849Z,151742.00
2022-08-07T11:30:41.648Z,153168.00
2022-08-07T11:31:24.132Z,157057.00
2022-08-07T11:32:25.292Z,155509.00
2022-08-07T11:33:48.755Z,156852.00
2022-08-07T11:34:24.182Z,156717.00
2022-08-07T11:35:25.145Z,150989.00
2022-08-07T11:36:25.413Z,150884.00
2022-08-07T11:37:24.195Z,150621.00
2022-08-07T11:38:28.085Z,150605.00
2022-08-07T11:39:24.153Z,156183.00
2022-08-07T11:40:24.138Z,164342.00
2022-08-07T11:41:29.637Z,163527.00
2022-08-07T11:42:29.580Z,163497.00
2022-08-07T11:43:41.752Z,163552.00
2022-08-07T11:44:24.077Z,160156.00
2022-08-07T11:45:35.489Z,154283.00
2022-08-07T11:46:24.063Z,156671.00
2022-08-07T11:47:38.634Z,159972.00
2022-08-07T11:48:30.161Z,161098.00
2022-08-07T11:49:50.530Z,164445.00
2022-08-07T11:50:31.791Z,159787.00
2022-08-07T11:51:41.976Z,158078.00
2022-08-07T11:52:29.360Z,162878.00
2022-08-07T11:53:24.003Z,164610.00
2022-08-07T11:54:25.574Z,161949.00
2022-08-07T11:56:11.974Z,162249.00
2022-08-07T11:56:27.064Z,163816.00
2022-08-07T11:57:58.185Z,163700.00
2022-08-07T11:58:33.582Z,159792.00
2022-08-07T12:00:10.940Z,153066.00
2022-08-07T12:00:28.522Z,157354.00
2022-08-07T12:01:23.955Z,161478.00
2022-08-07T12:02:30.784Z,162035.00
2022-08-07T12:03:45.740Z,158728.00
2022-08-07T12:04:23.946Z,155150.00
2022-08-07T12:05:28.698Z,153025.00
2022-08-07T12:06:37.674Z,163077.00
2022-08-07T12:07:27.173Z,158176.00
2022-08-07T12:08:26.091Z,156686.00
2022-08-07T12:09:23.972Z,153999.00
2022-08-07T12:10:23.926Z,152083.00
2022-08-07T12:11:23.909Z,151549.00
2022-08-07T12:12:24.494Z,158285.00
2022-08-07T12:13:37.052Z,164628.00
2022-08-07T12:14:23.893Z,163188.00
2022-08-07T12:15:46.134Z,160696.00
2022-08-07T12:16:30.034Z,157851.00
2022-08-07T12:17:23.884Z,151544.00
2022-08-07T12:18:29.892Z,152976.00
2022-08-07T12:19:23.933Z,159179.00
2022-08-07T12:20:30.295Z,159260.00
2022-08-07T12:22:36.542Z,153134.00
2022-08-07T12:22:37.405Z,150734.00